Time;durP1;ratioP1;P1;durP2;ratioP2;P2;SDS_P1;SDS_P2;PMS_P1;PMS_P2;Temp;Humidity;BMP_temperature;BMP_pressure;BME280_temperature;BME280_humidity;BME280_pressure;Samples;Min_cycle;Max_cycle;Signal;HPM_P1;HPM_P2
2021/07/19 00:02:00;;;;;;;14.38;10.30;;;19.10;74.10;;;;;;5082714;27;20383;-65
2021/07/19 00:04:26;;;;;;;15.57;10.55;;;19.10;74.40;;;;;;5079790;27;20033;-65
2021/07/19 00:06:52;;;;;;;14.52;10.80;;;19.00;74.40;;;;;;5080817;28;20492;-65
2021/07/19 00:09:17;;;;;;;13.75;10.90;;;19.00;74.60;;;;;;5083922;27;20056;-65
2021/07/19 00:11:43;;;;;;;13.95;10.48;;;19.00;75.60;;;;;;5080174;28;20036;-65
2021/07/19 00:14:09;;;;;;;13.50;10.25;;;18.90;74.70;;;;;;5080729;27;20032;-65
2021/07/19 00:16:36;;;;;;;15.25;10.32;;;18.90;74.90;;;;;;5082040;27;20026;-65
2021/07/19 00:19:02;;;;;;;13.10;10.25;;;18.80;74.90;;;;;;5099248;27;20032;-65
2021/07/19 00:21:27;;;;;;;13.57;9.88;;;18.90;75.00;;;;;;5081499;27;20051;-65
2021/07/19 00:23:53;;;;;;;14.27;10.50;;;18.80;74.90;;;;;;5082464;28;20086;-65
2021/07/19 00:26:19;;;;;;;13.50;10.15;;;18.80;74.90;;;;;;5078493;27;20077;-65
2021/07/19 00:28:47;;;;;;;14.85;10.40;;;18.90;74.90;;;;;;5078761;27;20032;-65
2021/07/19 00:31:12;;;;;;;16.92;9.93;;;18.90;75.10;;;;;;5083321;28;20048;-65
2021/07/19 00:33:38;;;;;;;13.77;10.40;;;18.90;74.90;;;;;;5089180;27;20066;-65
2021/07/19 00:36:05;;;;;;;12.70;9.65;;;19.00;74.70;;;;;;5082071;27;20043;-65
2021/07/19 00:38:31;;;;;;;13.35;10.32;;;19.00;74.70;;;;;;5083057;28;20075;-66
2021/07/19 00:40:56;;;;;;;15.57;10.32;;;19.00;74.40;;;;;;5082270;27;20476;-65
2021/07/19 00:43:22;;;;;;;14.20;10.80;;;18.90;74.20;;;;;;5081590;28;20039;-65
2021/07/19 00:45:48;;;;;;;14.88;10.15;;;18.90;74.40;;;;;;5084935;27;20093;-66
2021/07/19 00:48:17;;;;;;;15.40;10.18;;;18.80;74.50;;;;;;5087028;28;20052;-65
2021/07/19 00:50:42;;;;;;;14.88;9.93;;;18.70;75.60;;;;;;5082956;27;20048;-66
2021/07/19 00:53:09;;;;;;;16.38;10.05;;;18.70;74.90;;;;;;5084752;27;20113;-65
2021/07/19 00:55:39;;;;;;;15.50;10.27;;;18.70;75.10;;;;;;5084305;28;20028;-65
2021/07/19 00:58:06;;;;;;;13.50;9.85;;;18.60;75.20;;;;;;5087898;27;20032;-65
2021/07/19 01:00:35;;;;;;;15.77;9.68;;;18.60;75.20;;;;;;5084306;27;20506;-65
2021/07/19 01:03:03;;;;;;;13.60;9.77;;;18.60;75.40;;;;;;5084856;28;20060;-65
2021/07/19 01:05:29;;;;;;;13.43;10.07;;;18.60;75.30;;;;;;5084808;27;20566;-65
2021/07/19 01:07:56;;;;;;;17.73;10.07;;;18.50;75.20;;;;;;5083058;28;20085;-65
2021/07/19 01:10:22;;;;;;;14.15;10.20;;;18.50;75.20;;;;;;5083873;27;20062;-65
2021/07/19 01:12:50;;;;;;;16.42;10.52;;;18.40;75.40;;;;;;5084441;27;20035;-65
2021/07/19 01:15:17;;;;;;;13.05;9.90;;;18.40;75.70;;;;;;5095605;27;20043;-66
2021/07/19 01:17:43;;;;;;;14.88;10.70;;;18.30;75.60;;;;;;5082453;28;20051;-65
2021/07/19 01:20:10;;;;;;;17.48;11.40;;;18.20;75.80;;;;;;5086660;28;20506;-65
2021/07/19 01:23:13;;;;;;;15.55;10.52;;;18.20;75.90;;;;;;5083225;27;20032;-65
2021/07/19 01:25:44;;;;;;;14.70;10.32;;;18.10;77.70;;;;;;5083231;27;20036;-65
2021/07/19 01:28:36;;;;;;;13.18;9.90;;;18.10;76.30;;;;;;5085045;28;20470;-65
2021/07/19 01:31:09;;;;;;;14.05;10.18;;;18.00;77.20;;;;;;5081806;27;20028;-65
2021/07/19 01:33:37;;;;;;;16.08;10.00;;;18.00;76.50;;;;;;5086626;27;20028;-65
2021/07/19 01:36:04;;;;;;;16.88;10.07;;;17.90;76.50;;;;;;5086268;28;20043;-65
2021/07/19 01:38:31;;;;;;;12.95;10.15;;;17.90;76.80;;;;;;5083000;27;20042;-65
2021/07/19 01:40:57;;;;;;;15.60;10.25;;;17.90;76.70;;;;;;5088037;27;20395;-65
2021/07/19 01:43:24;;;;;;;14.95;10.32;;;17.90;76.70;;;;;;5085725;28;20062;-65
2021/07/19 01:45:50;;;;;;;18.17;10.07;;;17.80;77.00;;;;;;5081615;27;20047;-65
2021/07/19 01:48:16;;;;;;;16.10;10.40;;;17.80;77.00;;;;;;5084768;28;20477;-65
2021/07/19 01:50:42;;;;;;;12.68;9.45;;;17.80;77.10;;;;;;5086675;27;20070;-65
2021/07/19 01:53:09;;;;;;;11.45;9.02;;;17.80;77.20;;;;;;5082042;27;20036;-65
2021/07/19 01:55:35;;;;;;;12.65;9.55;;;17.70;77.30;;;;;;5079839;28;20040;-65
2021/07/19 01:58:01;;;;;;;12.43;9.32;;;17.70;77.30;;;;;;5085970;27;20036;-65
2021/07/19 02:00:29;;;;;;;15.05;9.52;;;17.70;77.30;;;;;;5081925;27;20043;-65
2021/07/19 02:02:54;;;;;;;11.30;9.02;;;17.70;77.30;;;;;;5082668;27;20036;-65
2021/07/19 02:05:24;;;;;;;11.95;9.30;;;17.80;77.20;;;;;;5083624;27;20054;-65
2021/07/19 02:07:53;;;;;;;12.38;9.50;;;17.80;77.30;;;;;;5081440;28;20032;-65
2021/07/19 02:10:19;;;;;;;12.02;9.40;;;17.80;77.10;;;;;;5081568;28;20159;-65
2021/07/19 02:12:46;;;;;;;13.70;10.10;;;17.80;76.90;;;;;;5080453;27;20059;-65
2021/07/19 02:15:18;;;;;;;15.30;9.90;;;17.80;76.80;;;;;;5082699;28;20056;-65
2021/07/19 02:17:55;;;;;;;16.58;10.18;;;17.80;77.00;;;;;;5085472;27;20028;-66
2021/07/19 02:20:23;;;;;;;16.73;10.13;;;17.70;77.30;;;;;;5083142;27;20578;-65
2021/07/19 02:22:50;;;;;;;13.23;9.40;;;17.70;77.10;;;;;;5083849;28;20514;-65
2021/07/19 02:25:16;;;;;;;14.07;9.55;;;17.70;77.30;;;;;;5081003;27;20078;-65
2021/07/19 02:27:45;;;;;;;16.67;9.07;;;17.60;77.30;;;;;;5084238;28;20032;-65
2021/07/19 02:30:13;;;;;;;13.35;8.77;;;17.60;77.70;;;;;;5086148;27;20410;-65
2021/07/19 02:32:47;;;;;;;12.43;9.18;;;17.60;77.50;;;;;;5084083;27;20601;-65
2021/07/19 02:35:14;;;;;;;12.50;8.95;;;17.50;77.50;;;;;;5083630;28;20028;-65
2021/07/19 02:37:43;;;;;;;13.35;8.95;;;17.50;77.40;;;;;;5085076;27;20511;-65
2021/07/19 02:40:11;;;;;;;14.60;9.65;;;17.50;77.50;;;;;;5094294;27;20055;-65
2021/07/19 02:42:46;;;;;;;12.15;8.98;;;17.50;77.30;;;;;;5079147;28;20039;-65
2021/07/19 02:45:16;;;;;;;;;;;17.50;77.50;;;;;;5086985;28;20028;-65
2021/07/19 02:47:46;;;;;;;11.20;8.23;;;17.50;77.40;;;;;;5083220;28;19930;-65
2021/07/19 02:50:14;;;;;;;12.45;8.38;;;17.50;77.10;;;;;;5082371;27;20028;-65
2021/07/19 02:52:41;;;;;;;12.23;8.80;;;17.40;77.10;;;;;;5083257;27;20128;-64
2021/07/19 02:55:08;;;;;;;11.40;8.38;;;17.40;77.10;;;;;;5079917;28;20036;-65
2021/07/19 02:57:37;;;;;;;14.00;8.43;;;17.50;77.20;;;;;;5085724;27;20039;-65
2021/07/19 03:00:08;;;;;;;13.05;8.73;;;17.40;77.50;;;;;;5084554;28;20089;-65
2021/07/19 03:02:41;;;;;;;11.77;8.73;;;17.40;77.60;;;;;;5083382;27;20032;-66
2021/07/19 03:05:09;;;;;;;11.77;8.25;;;17.30;77.30;;;;;;5082881;27;20165;-65
2021/07/19 03:07:37;;;;;;;12.38;8.50;;;17.30;78.00;;;;;;5084590;28;20111;-65
2021/07/19 03:10:05;;;;;;;13.07;8.10;;;17.20;77.70;;;;;;5086802;27;20020;-65
2021/07/19 03:12:35;;;;;;;12.15;7.97;;;17.20;77.90;;;;;;5079860;27;20063;-65
2021/07/19 03:15:01;;;;;;;10.55;7.43;;;17.20;78.00;;;;;;5085029;28;20042;-65
2021/07/19 03:17:27;;;;;;;10.82;8.00;;;17.10;77.90;;;;;;5084333;27;20776;-65
2021/07/19 03:19:55;;;;;;;9.90;7.43;;;17.10;77.90;;;;;;5078930;28;20066;-65
2021/07/19 03:22:23;;;;;;;12.48;7.40;;;17.10;78.00;;;;;;5084948;27;20115;-65
2021/07/19 03:24:52;;;;;;;12.68;7.22;;;17.10;78.10;;;;;;5082447;27;20043;-65
2021/07/19 03:27:19;;;;;;;11.23;7.55;;;17.10;77.90;;;;;;5083537;28;20024;-65
2021/07/19 03:29:46;;;;;;;10.63;7.63;;;17.10;77.90;;;;;;5100780;27;20036;-65
2021/07/19 03:32:12;;;;;;;9.52;7.38;;;17.10;78.00;;;;;;5079681;28;20036;-65
2021/07/19 03:34:40;;;;;;;11.55;7.60;;;17.10;77.80;;;;;;5080662;27;20399;-65
2021/07/19 03:37:06;;;;;;;14.60;7.85;;;17.00;77.80;;;;;;5079004;28;20702;-65
2021/07/19 03:39:32;;;;;;;10.98;8.02;;;17.00;78.60;;;;;;5081698;28;20032;-65
2021/07/19 03:41:59;;;;;;;12.18;8.02;;;17.00;78.00;;;;;;5079383;27;20062;-65
2021/07/19 03:44:25;;;;;;;12.45;8.23;;;17.00;78.20;;;;;;5079468;27;20024;-65
2021/07/19 03:46:51;;;;;;;11.82;7.78;;;16.90;78.30;;;;;;5080224;28;20051;-64
2021/07/19 03:49:19;;;;;;;12.25;7.72;;;16.90;78.30;;;;;;5081138;27;20118;-65
2021/07/19 03:51:48;;;;;;;11.02;7.57;;;16.80;78.40;;;;;;5082732;28;20028;-65
2021/07/19 03:54:14;;;;;;;12.63;7.07;;;16.80;78.90;;;;;;5081774;28;20119;-65
2021/07/19 03:56:40;;;;;;;9.90;6.65;;;16.70;78.80;;;;;;5080757;27;20135;-64
2021/07/19 03:59:07;;;;;;;8.23;6.57;;;16.70;79.00;;;;;;5082136;28;20081;-65
2021/07/19 04:01:36;;;;;;;9.48;6.57;;;16.70;79.10;;;;;;5083586;27;20028;-65
2021/07/19 04:04:08;;;;;;;8.63;6.75;;;16.70;79.30;;;;;;5084847;28;20514;-65
2021/07/19 04:06:34;;;;;;;8.50;6.63;;;16.70;79.30;;;;;;5081153;27;20047;-64
2021/07/19 04:09:01;;;;;;;12.57;6.80;;;16.80;79.30;;;;;;5087832;27;20032;-65
2021/07/19 04:11:27;;;;;;;9.48;6.70;;;16.80;79.10;;;;;;5081084;28;20131;-65
2021/07/19 04:13:54;;;;;;;12.73;7.05;;;16.80;79.10;;;;;;5079581;27;20047;-65
2021/07/19 04:16:22;;;;;;;10.68;6.97;;;16.80;79.10;;;;;;5079344;27;20112;-65
2021/07/19 04:18:51;;;;;;;10.85;6.75;;;16.80;80.00;;;;;;5081349;28;20032;-65
2021/07/19 04:21:19;;;;;;;9.65;6.65;;;16.80;80.00;;;;;;5082777;27;20433;-65
2021/07/19 04:23:45;;;;;;;12.25;6.50;;;16.80;79.20;;;;;;5089436;28;20081;-65
2021/07/19 04:26:12;;;;;;;9.38;6.88;;;16.80;79.30;;;;;;5083728;27;20464;-65
2021/07/19 04:28:39;;;;;;;9.30;6.35;;;16.80;79.40;;;;;;5084258;27;20123;-65
2021/07/19 04:31:05;;;;;;;12.45;6.85;;;16.80;79.40;;;;;;5088199;28;20444;-65
2021/07/19 04:33:31;;;;;;;9.48;6.88;;;16.80;79.20;;;;;;5085454;27;20097;-65
2021/07/19 04:35:56;;;;;;;11.68;6.57;;;16.90;79.10;;;;;;5087488;27;20530;-65
2021/07/19 04:38:23;;;;;;;9.75;6.18;;;16.90;79.10;;;;;;5084596;27;20081;-65
2021/07/19 04:40:53;;;;;;;8.48;6.50;;;17.00;79.30;;;;;;5088903;27;20036;-65
2021/07/19 04:43:19;;;;;;;10.35;6.70;;;16.90;79.30;;;;;;5086723;27;20051;-65
2021/07/19 04:45:46;;;;;;;11.13;6.93;;;17.00;79.20;;;;;;5085373;27;20265;-65
2021/07/19 04:48:13;;;;;;;10.00;6.90;;;17.00;79.40;;;;;;5084019;27;20112;-65
2021/07/19 04:50:38;;;;;;;9.57;6.30;;;17.10;79.40;;;;;;5086294;27;20512;-65
2021/07/19 04:53:04;;;;;;;9.10;6.65;;;17.00;79.50;;;;;;5089216;27;20032;-65
2021/07/19 04:55:31;;;;;;;10.57;6.80;;;17.10;79.60;;;;;;5085236;27;20025;-65
2021/07/19 04:57:58;;;;;;;11.88;6.43;;;17.00;79.70;;;;;;5084228;27;20028;-65
2021/07/19 05:00:27;;;;;;;8.40;6.65;;;17.00;79.80;;;;;;5077166;27;20040;-65
2021/07/19 05:02:54;;;;;;;8.55;6.38;;;17.00;80.10;;;;;;5088571;28;20036;-65
2021/07/19 05:05:22;;;;;;;13.50;5.95;;;17.10;80.40;;;;;;5083302;27;20042;-65
2021/07/19 05:07:49;;;;;;;8.75;6.60;;;17.00;80.60;;;;;;5086020;28;20032;-65
2021/07/19 05:10:16;;;;;;;8.85;6.65;;;17.00;80.80;;;;;;5088679;27;20266;-65
2021/07/19 05:12:43;;;;;;;10.98;6.90;;;17.10;81.00;;;;;;5086829;27;21862;-65
2021/07/19 05:15:14;;;;;;;8.05;6.38;;;17.10;81.00;;;;;;5082527;28;20028;-65
2021/07/19 05:17:41;;;;;;;8.32;6.57;;;17.20;81.30;;;;;;5087002;27;20032;-65
2021/07/19 05:20:15;;;;;;;8.45;6.60;;;17.30;81.30;;;;;;5086675;27;20035;-65
2021/07/19 05:22:54;;;;;;;11.60;6.47;;;17.40;81.90;;;;;;5083732;27;20043;-65
2021/07/19 05:25:30;;;;;;;8.25;6.55;;;17.40;82.20;;;;;;5085599;27;20087;-65
2021/07/19 05:28:04;;;;;;;8.00;6.75;;;17.50;82.00;;;;;;5088035;28;20557;-65
2021/07/19 05:30:30;;;;;;;7.55;6.72;;;17.60;81.60;;;;;;5080249;27;20040;-66
2021/07/19 05:32:56;;;;;;;10.70;7.10;;;17.70;81.50;;;;;;5082287;27;20062;-66
2021/07/19 05:35:22;;;;;;;10.35;7.78;;;17.80;81.50;;;;;;5085657;28;20036;-65
2021/07/19 05:37:48;;;;;;;9.90;7.28;;;17.80;81.60;;;;;;5081868;27;20758;-65
2021/07/19 05:40:16;;;;;;;12.18;7.60;;;17.90;81.50;;;;;;5084522;28;20032;-67
2021/07/19 05:42:42;;;;;;;11.73;7.90;;;18.00;81.90;;;;;;5081933;28;20055;-65
2021/07/19 05:45:09;;;;;;;13.05;8.10;;;18.10;82.00;;;;;;5081484;27;20044;-65
2021/07/19 05:47:35;;;;;;;11.35;8.50;;;18.20;82.20;;;;;;5081548;28;20119;-65
2021/07/19 05:50:03;;;;;;;13.60;8.50;;;18.30;82.10;;;;;;5082133;28;20181;-65
2021/07/19 05:52:28;;;;;;;12.07;8.45;;;18.40;82.00;;;;;;5080232;28;20114;-65
2021/07/19 05:54:56;;;;;;;12.80;9.00;;;18.40;82.50;;;;;;5081727;27;20085;-65
2021/07/19 05:57:25;;;;;;;11.10;8.40;;;18.60;81.80;;;;;;5081251;28;20047;-65
2021/07/19 05:59:55;;;;;;;11.50;8.38;;;18.70;81.80;;;;;;5081211;27;20123;-64
2021/07/19 06:02:21;;;;;;;9.95;7.70;;;18.80;81.70;;;;;;5079227;28;20066;-65
2021/07/19 06:04:47;;;;;;;9.23;8.15;;;18.80;81.60;;;;;;5080124;28;20111;-64
2021/07/19 06:07:13;;;;;;;8.82;7.72;;;18.90;81.60;;;;;;5070108;27;20028;-65
2021/07/19 06:09:38;;;;;;;9.57;7.25;;;19.00;81.60;;;;;;5064437;27;20488;-65
2021/07/19 06:12:04;;;;;;;11.85;8.60;;;19.10;81.20;;;;;;5066527;28;20574;-65
2021/07/19 06:14:29;;;;;;;9.40;7.53;;;19.20;80.80;;;;;;5070665;27;20036;-66
2021/07/19 06:16:55;;;;;;;9.25;7.40;;;19.30;80.60;;;;;;5070433;28;20032;-65
2021/07/19 06:19:21;;;;;;;9.95;7.78;;;19.40;80.10;;;;;;5069311;27;20040;-66
2021/07/19 06:21:46;;;;;;;10.10;7.57;;;19.50;79.90;;;;;;5065510;28;20036;-65
2021/07/19 06:24:12;;;;;;;9.95;7.75;;;19.60;79.80;;;;;;5068550;27;20445;-65
2021/07/19 06:26:39;;;;;;;10.38;7.40;;;19.70;79.80;;;;;;5087533;27;20035;-65
2021/07/19 06:29:05;;;;;;;8.70;7.18;;;19.70;79.80;;;;;;5072335;28;20028;-65
2021/07/19 06:31:30;;;;;;;7.65;6.78;;;19.80;79.60;;;;;;5068260;27;20499;-65
2021/07/19 06:33:56;;;;;;;11.95;7.60;;;19.90;79.10;;;;;;5069400;28;20051;-66
2021/07/19 06:36:22;;;;;;;8.98;6.97;;;20.00;78.90;;;;;;5071926;27;20085;-66
2021/07/19 06:38:47;;;;;;;9.30;7.05;;;20.00;79.00;;;;;;5067582;27;20051;-66
2021/07/19 06:41:14;;;;;;;11.70;7.13;;;20.10;78.90;;;;;;5070475;28;20078;-65
2021/07/19 06:43:40;;;;;;;8.75;7.35;;;20.10;78.60;;;;;;5071760;27;20093;-66
2021/07/19 06:46:06;;;;;;;8.40;6.85;;;20.30;78.60;;;;;;5069661;28;20042;-66
2021/07/19 06:48:32;;;;;;;10.35;7.50;;;20.30;78.80;;;;;;5064670;27;20036;-66
2021/07/19 06:50:59;;;;;;;8.68;6.72;;;20.30;78.60;;;;;;5071700;27;20100;-66
2021/07/19 06:53:24;;;;;;;8.10;6.10;;;20.40;78.00;;;;;;5068597;28;20179;-66
2021/07/19 06:55:50;;;;;;;7.75;6.70;;;20.50;78.00;;;;;;5068408;28;20591;-64
2021/07/19 06:58:15;;;;;;;8.52;6.55;;;20.50;77.80;;;;;;5072274;28;20032;-65
2021/07/19 07:00:41;;;;;;;7.35;6.53;;;20.60;77.70;;;;;;5076397;27;20622;-65
2021/07/19 07:03:06;;;;;;;10.05;6.20;;;20.60;77.60;;;;;;5064116;28;20054;-65
2021/07/19 07:05:32;;;;;;;7.68;6.28;;;20.70;77.50;;;;;;5071274;28;20128;-65
2021/07/19 07:07:58;;;;;;;9.07;6.38;;;20.80;77.30;;;;;;5072226;28;20152;-65
2021/07/19 07:10:24;;;;;;;8.93;6.57;;;20.90;77.20;;;;;;5068339;27;20098;-66
2021/07/19 07:12:49;;;;;;;8.25;6.55;;;21.00;77.10;;;;;;5070232;28;20070;-66
2021/07/19 07:15:15;;;;;;;6.57;5.75;;;21.00;77.00;;;;;;5072797;27;20040;-65
2021/07/19 07:17:41;;;;;;;7.63;6.13;;;21.10;76.80;;;;;;5067789;28;20043;-65
2021/07/19 07:20:09;;;;;;;7.18;6.28;;;21.20;76.50;;;;;;5069243;27;20120;-65
2021/07/19 07:22:34;;;;;;;8.00;5.88;;;21.20;76.30;;;;;;5069288;27;20040;-65
2021/07/19 07:25:00;;;;;;;7.18;6.35;;;21.30;76.30;;;;;;5067925;28;20043;-65
2021/07/19 07:27:26;;;;;;;9.90;6.28;;;21.40;75.80;;;;;;5067653;27;21000;-65
2021/07/19 07:29:52;;;;;;;7.70;6.45;;;21.40;75.60;;;;;;5074284;28;20029;-65
2021/07/19 07:32:18;;;;;;;8.30;6.13;;;21.50;75.60;;;;;;5068280;27;20415;-65
2021/07/19 07:34:44;;;;;;;7.07;6.00;;;21.60;75.30;;;;;;5070165;27;21785;-65
2021/07/19 07:37:12;;;;;;;6.95;5.95;;;21.60;75.20;;;;;;5068514;28;20047;-66
2021/07/19 07:39:40;;;;;;;7.53;5.93;;;21.70;75.10;;;;;;5068452;27;20032;-65
2021/07/19 07:42:05;;;;;;;10.80;6.28;;;21.80;74.90;;;;;;5067823;28;20040;-65
2021/07/19 07:44:31;;;;;;;9.55;5.63;;;21.80;74.50;;;;;;5066169;28;20094;-66
2021/07/19 07:46:56;;;;;;;7.00;5.60;;;21.90;74.60;;;;;;5076291;27;20036;-65
2021/07/19 07:49:22;;;;;;;6.18;5.22;;;21.90;74.70;;;;;;5065972;28;20522;-65
2021/07/19 07:51:48;;;;;;;6.00;5.40;;;22.00;74.60;;;;;;5067727;27;20120;-65
2021/07/19 07:54:16;;;;;;;9.50;5.60;;;22.10;74.30;;;;;;5068620;28;20788;-65
2021/07/19 07:56:42;;;;;;;5.93;5.30;;;22.20;74.60;;;;;;5070058;28;20047;-66
2021/07/19 07:59:07;;;;;;;6.40;5.20;;;22.30;73.70;;;;;;5073344;27;20079;-65
2021/07/19 08:01:33;;;;;;;5.38;4.78;;;22.40;73.30;;;;;;5077467;28;20043;-65
2021/07/19 08:03:59;;;;;;;7.10;5.00;;;22.50;73.70;;;;;;5078103;27;20036;-65
2021/07/19 08:06:24;;;;;;;5.88;4.85;;;22.60;72.80;;;;;;5087683;27;20471;-66
2021/07/19 08:08:50;;;;;;;5.20;4.35;;;22.70;72.70;;;;;;5090524;28;20028;-66
2021/07/19 08:11:16;;;;;;;6.88;4.70;;;22.70;72.30;;;;;;5088688;27;20040;-65
2021/07/19 08:13:41;;;;;;;5.45;4.30;;;22.80;72.00;;;;;;5090447;28;20035;-66
2021/07/19 08:16:07;;;;;;;7.30;4.97;;;22.90;72.00;;;;;;5089148;27;20032;-65
2021/07/19 08:18:33;;;;;;;7.07;5.18;;;23.00;71.10;;;;;;5090395;27;20043;-66
2021/07/19 08:20:58;;;;;;;5.40;4.45;;;23.00;71.10;;;;;;5088640;28;20122;-66
2021/07/19 08:23:24;;;;;;;5.22;4.25;;;23.10;71.30;;;;;;5089582;27;20418;-66
2021/07/19 08:25:49;;;;;;;5.90;3.95;;;23.20;71.20;;;;;;5084032;28;20035;-65
2021/07/19 08:28:15;;;;;;;4.47;4.10;;;23.30;70.70;;;;;;5089957;27;20040;-66
2021/07/19 08:30:41;;;;;;;4.97;4.45;;;23.40;70.80;;;;;;5089593;27;20036;-66
2021/07/19 08:33:07;;;;;;;5.13;4.65;;;23.50;70.40;;;;;;5089776;28;20522;-65
2021/07/19 08:35:33;;;;;;;4.80;4.07;;;23.60;69.90;;;;;;5089574;27;20044;-65
2021/07/19 08:37:59;;;;;;;4.82;3.95;;;23.70;69.90;;;;;;5089619;28;20020;-65
2021/07/19 08:40:25;;;;;;;5.35;3.92;;;23.80;70.70;;;;;;5087531;27;20036;-66
2021/07/19 08:42:52;;;;;;;4.82;3.72;;;23.90;69.50;;;;;;5076126;27;20036;-65
2021/07/19 08:45:18;;;;;;;4.38;3.97;;;24.00;69.80;;;;;;5075054;27;20039;-65
2021/07/19 08:47:46;;;;;;;4.70;4.28;;;24.10;69.50;;;;;;5096367;27;20040;-65
2021/07/19 08:50:14;;;;;;;4.20;3.80;;;24.20;67.60;;;;;;5073892;27;20028;-66
2021/07/19 08:52:40;;;;;;;5.25;4.35;;;24.30;67.60;;;;;;5075373;27;20033;-66
2021/07/19 08:55:10;;;;;;;3.83;3.42;;;24.40;67.30;;;;;;5073714;27;20035;-65
2021/07/19 08:57:40;;;;;;;4.93;3.90;;;24.50;66.90;;;;;;5076203;28;20024;-66
2021/07/19 09:00:08;;;;;;;5.75;3.75;;;24.70;66.80;;;;;;5080346;27;20028;-66
2021/07/19 09:02:34;;;;;;;4.68;4.20;;;24.80;66.50;;;;;;5074155;27;20062;-65
2021/07/19 09:04:59;;;;;;;4.80;3.70;;;24.90;64.30;;;;;;5073877;28;20500;-65
2021/07/19 09:07:25;;;;;;;4.00;3.60;;;24.90;64.90;;;;;;5072520;28;21449;-65
2021/07/19 09:09:52;;;;;;;4.65;3.47;;;25.00;65.60;;;;;;5078951;28;20028;-65
2021/07/19 09:12:33;;;;;;;4.47;3.75;;;25.10;64.60;;;;;;5074422;28;20029;-65
2021/07/19 09:14:59;;;;;;;4.50;3.78;;;25.10;63.40;;;;;;5076061;27;20075;-65
2021/07/19 09:17:27;;;;;;;4.10;3.70;;;25.30;64.10;;;;;;5076589;28;20141;-65
2021/07/19 09:19:55;;;;;;;6.00;3.30;;;25.30;63.90;;;;;;5074952;27;20151;-65
2021/07/19 09:22:29;;;;;;;4.03;3.60;;;25.40;63.70;;;;;;5076382;28;20119;-66
2021/07/19 09:25:16;;;;;;;3.47;3.28;;;25.50;61.80;;;;;;5075179;28;20077;-64
2021/07/19 09:27:58;;;;;;;3.95;3.53;;;25.60;61.80;;;;;;5072320;28;20039;-65
2021/07/19 09:30:28;;;;;;;3.10;2.90;;;25.70;61.10;;;;;;5078094;27;20706;-66
2021/07/19 09:33:02;;;;;;;3.47;3.17;;;25.80;62.20;;;;;;5077520;28;20789;-66
2021/07/19 09:35:30;;;;;;;3.60;3.28;;;25.90;61.00;;;;;;5074232;28;20043;-65
2021/07/19 09:38:06;;;;;;;3.38;3.08;;;26.00;60.70;;;;;;5074671;28;20209;-66
2021/07/19 09:40:33;;;;;;;3.22;3.00;;;26.00;59.40;;;;;;5073533;27;20040;-66
2021/07/19 09:42:59;;;;;;;3.40;3.10;;;26.10;61.80;;;;;;5075316;28;20043;-66
2021/07/19 09:45:26;;;;;;;4.00;3.28;;;26.20;60.10;;;;;;5085654;28;20115;-66
2021/07/19 09:48:03;;;;;;;3.45;2.70;;;26.20;59.10;;;;;;5083793;27;20144;-66
2021/07/19 09:50:44;;;;;;;4.25;2.90;;;26.30;59.60;;;;;;5087891;27;20035;-66
2021/07/19 09:53:10;;;;;;;4.22;3.00;;;26.30;56.10;;;;;;5081330;28;20407;-66
2021/07/19 09:55:36;;;;;;;3.05;2.70;;;26.40;58.30;;;;;;5096200;27;20040;-66
2021/07/19 09:58:03;;;;;;;4.38;2.97;;;26.40;57.70;;;;;;5077246;28;20047;-66
2021/07/19 10:00:30;;;;;;;2.88;2.67;;;26.40;58.00;;;;;;5075864;28;20044;-66
2021/07/19 10:02:56;;;;;;;2.72;2.50;;;26.50;57.90;;;;;;5081990;27;20496;-66
2021/07/19 10:05:31;;;;;;;5.07;2.50;;;26.50;56.60;;;;;;5079564;28;20093;-66
2021/07/19 10:07:59;;;;;;;3.00;2.20;;;26.60;53.40;;;;;;5085061;27;20059;-66
2021/07/19 10:10:51;;;;;;;3.40;2.35;;;26.60;55.20;;;;;;5086531;27;20043;-66
2021/07/19 10:13:17;;;;;;;3.92;2.50;;;26.70;55.20;;;;;;5084713;28;20032;-66
2021/07/19 10:15:44;;;;;;;2.33;2.13;;;26.80;55.10;;;;;;5085825;27;20036;-66
2021/07/19 10:18:11;;;;;;;2.47;2.28;;;26.80;55.50;;;;;;5090766;27;20036;-66
2021/07/19 10:20:38;;;;;;;4.10;2.30;;;26.90;55.00;;;;;;5084629;27;20181;-66
2021/07/19 10:23:05;;;;;;;4.10;2.50;;;26.90;54.70;;;;;;5086458;28;20636;-66
2021/07/19 10:25:31;;;;;;;3.47;2.35;;;27.00;54.10;;;;;;5084725;28;20040;-66
2021/07/19 10:27:57;;;;;;;2.40;2.20;;;27.00;52.60;;;;;;5086419;27;20388;-66
2021/07/19 10:30:22;;;;;;;3.63;2.30;;;27.00;53.30;;;;;;5087585;27;20137;-66
2021/07/19 10:32:48;;;;;;;2.53;2.33;;;27.00;53.40;;;;;;5087305;28;20440;-66
2021/07/19 10:35:15;;;;;;;2.13;1.92;;;27.00;52.80;;;;;;5084001;27;20055;-66
2021/07/19 10:38:13;;;;;;;3.35;2.22;;;26.90;53.50;;;;;;5088925;27;20127;-66
2021/07/19 10:40:40;;;;;;;2.50;1.85;;;27.00;53.30;;;;;;5082785;27;20077;-66
2021/07/19 10:43:08;;;;;;;2.42;2.17;;;27.00;54.40;;;;;;5086038;27;20081;-66
2021/07/19 10:45:58;;;;;;;5.13;2.17;;;27.10;53.80;;;;;;5086555;28;20044;-66
2021/07/19 10:48:26;;;;;;;2.78;2.38;;;27.10;51.20;;;;;;5085224;27;20665;-66
2021/07/19 10:50:54;;;;;;;2.38;2.15;;;27.20;53.10;;;;;;5085750;27;20055;-66
2021/07/19 10:53:22;;;;;;;3.20;2.10;;;27.30;53.40;;;;;;5087323;28;20031;-66
2021/07/19 10:56:03;;;;;;;5.32;2.58;;;27.30;52.90;;;;;;5082324;27;20628;-66
2021/07/19 10:58:45;;;;;;;3.92;2.10;;;27.40;53.00;;;;;;5085137;27;20032;-66
2021/07/19 11:01:27;;;;;;;4.10;2.50;;;27.50;53.00;;;;;;5085578;28;20464;-66
2021/07/19 11:04:00;;;;;;;5.57;2.38;;;27.50;52.30;;;;;;5085438;27;20032;-66
2021/07/19 11:06:41;;;;;;;4.20;2.53;;;27.60;52.40;;;;;;5085406;27;20035;-66
2021/07/19 11:09:09;;;;;;;5.45;2.40;;;27.60;51.70;;;;;;5078914;27;20656;-66
2021/07/19 11:11:40;;;;;;;5.03;2.40;;;27.60;52.40;;;;;;5082772;27;20458;-66
2021/07/19 11:14:11;;;;;;;4.88;2.47;;;27.60;52.00;;;;;;5085554;28;20036;-66
2021/07/19 11:16:43;;;;;;;4.47;2.28;;;27.70;52.50;;;;;;5084990;27;20517;-66
2021/07/19 11:19:09;;;;;;;5.78;2.25;;;27.70;51.10;;;;;;5086478;27;20043;-66
2021/07/19 11:21:35;;;;;;;4.20;2.30;;;27.70;52.00;;;;;;5099964;27;20043;-66
2021/07/19 11:24:19;;;;;;;3.30;2.38;;;27.70;51.80;;;;;;5086748;27;20032;-66
2021/07/19 11:26:54;;;;;;;5.10;2.83;;;27.70;51.30;;;;;;5081816;27;20410;-66
2021/07/19 11:29:37;;;;;;;5.03;2.42;;;27.80;50.50;;;;;;5084548;28;20081;-66
2021/07/19 11:32:23;;;;;;;4.35;2.10;;;27.80;50.10;;;;;;5086823;27;20051;-66
2021/07/19 11:34:49;;;;;;;3.90;2.33;;;27.80;50.50;;;;;;5084268;27;20541;-67
2021/07/19 11:37:19;;;;;;;5.13;2.42;;;27.80;51.70;;;;;;5080673;28;20133;-65
2021/07/19 11:39:49;;;;;;;5.25;2.50;;;27.90;51.40;;;;;;5078919;27;20036;-66
2021/07/19 11:42:25;;;;;;;4.93;2.50;;;27.90;51.30;;;;;;5075987;28;20400;-66
2021/07/19 11:45:20;;;;;;;3.83;2.42;;;27.90;51.40;;;;;;5074568;28;20291;-66
2021/07/19 11:47:56;;;;;;;6.47;2.42;;;28.00;49.60;;;;;;5077075;27;20031;-66
2021/07/19 11:50:25;;;;;;;4.75;2.17;;;27.90;50.20;;;;;;5079227;27;20032;-68
2021/07/19 11:52:53;;;;;;;7.93;2.63;;;27.90;50.10;;;;;;5077101;28;20150;-66
2021/07/19 11:55:22;;;;;;;7.30;2.58;;;27.90;49.50;;;;;;5074568;27;20679;-66
2021/07/19 11:57:52;;;;;;;3.25;2.03;;;27.90;49.10;;;;;;5075610;28;20040;-66
2021/07/19 12:00:36;;;;;;;3.10;2.25;;;27.90;50.20;;;;;;5077367;27;20031;-66
2021/07/19 12:03:07;;;;;;;5.80;2.22;;;27.80;50.10;;;;;;5077194;27;20058;-66
2021/07/19 12:05:34;;;;;;;5.35;2.30;;;27.80;49.90;;;;;;5080759;28;20051;-66
2021/07/19 12:08:05;;;;;;;6.60;2.30;;;27.80;50.90;;;;;;5077899;27;20070;-66
2021/07/19 12:10:33;;;;;;;5.40;2.25;;;27.90;50.10;;;;;;5092592;27;20036;-66
2021/07/19 12:13:09;;;;;;;3.67;2.30;;;27.90;50.40;;;;;;5075180;28;20044;-66
2021/07/19 12:15:36;;;;;;;3.28;2.22;;;27.90;49.20;;;;;;5074525;27;20028;-66
2021/07/19 12:18:02;;;;;;;3.78;1.92;;;28.00;49.90;;;;;;5075891;28;20089;-66
2021/07/19 12:20:30;;;;;;;3.75;2.00;;;28.10;50.40;;;;;;5073641;28;20044;-66
2021/07/19 12:22:57;;;;;;;6.95;2.20;;;28.10;50.00;;;;;;5082964;27;20515;-66
2021/07/19 12:25:23;;;;;;;3.85;2.33;;;28.10;50.00;;;;;;5079626;28;20189;-67
2021/07/19 12:28:00;;;;;;;3.78;1.90;;;28.10;49.00;;;;;;5075397;28;20036;-66
2021/07/19 12:30:27;;;;;;;2.33;1.90;;;28.10;48.80;;;;;;5077401;27;20530;-67
2021/07/19 12:32:53;;;;;;;4.63;2.05;;;28.10;49.60;;;;;;5087973;27;20444;-65
2021/07/19 12:35:23;;;;;;;5.30;1.92;;;28.10;49.90;;;;;;5074360;27;20506;-66
2021/07/19 12:38:12;;;;;;;3.50;1.83;;;28.20;50.00;;;;;;5082003;28;20028;-66
2021/07/19 12:40:38;;;;;;;3.22;2.20;;;28.20;49.60;;;;;;5084855;27;20127;-66
2021/07/19 12:43:03;;;;;;;4.95;2.47;;;28.20;48.80;;;;;;5087233;27;20123;-66
2021/07/19 12:45:29;;;;;;;4.60;2.13;;;28.20;48.70;;;;;;5083831;28;20054;-66
2021/07/19 12:47:57;;;;;;;4.70;2.10;;;28.20;49.20;;;;;;5085403;28;20028;-66